Time;durP1;ratioP1;P1;durP2;ratioP2;P2;SDS_P1;SDS_P2;PMS_P1;PMS_P2;Temp;Humidity;BMP_temperature;BMP_pressure;BME280_temperature;BME280_humidity;BME280_pressure;Samples;Min_cycle;Max_cycle;Signal;HPM_P1;HPM_P2
2023/06/12 00:01:19;;;;;;;25.27;15.70;;;;;;;27.67;76.21;97386.53;4960475;28;20065;-67
2023/06/12 00:03:49;;;;;;;28.42;15.07;;;;;;;27.73;75.86;97381.69;4966743;28;20109;-64
2023/06/12 00:06:18;;;;;;;29.75;15.65;;;;;;;27.76;74.67;97394.63;4964462;28;20165;-66
2023/06/12 00:08:48;;;;;;;31.20;14.93;;;;;;;27.80;75.00;97379.22;4966005;28;20054;-67
2023/06/12 00:11:18;;;;;;;43.60;15.50;;;;;;;27.86;74.98;97383.31;4965045;28;20050;-67
2023/06/12 00:13:48;;;;;;;25.25;13.85;;;;;;;27.82;73.59;97379.69;4962939;28;20050;-66
2023/06/12 00:16:17;;;;;;;29.13;13.93;;;;;;;27.85;74.49;97381.72;4965148;28;20043;-66
2023/06/12 00:18:48;;;;;;;29.25;14.60;;;;;;;27.87;74.97;97376.75;4966512;28;20042;-65
2023/06/12 00:21:22;;;;;;;23.45;13.48;;;;;;;27.88;73.99;97377.53;4965141;28;20143;-66
2023/06/12 00:23:52;;;;;;;27.05;13.27;;;;;;;27.91;72.83;97376.88;4966537;28;20403;-65
2023/06/12 00:26:21;;;;;;;22.33;13.27;;;;;;;27.93;72.54;97372.66;4961547;28;20439;-65
2023/06/12 00:28:51;;;;;;;18.55;12.60;;;;;;;27.99;73.79;97367.81;4966294;28;20078;-65
2023/06/12 00:31:21;;;;;;;21.00;13.02;;;;;;;28.02;72.94;97378.00;4960628;28;20155;-64
2023/06/12 00:33:51;;;;;;;25.60;13.23;;;;;;;28.02;73.22;97373.34;4964949;28;20046;-65
2023/06/12 00:36:20;;;;;;;17.50;12.57;;;;;;;28.05;74.30;97371.91;4961016;28;20050;-65
2023/06/12 00:38:51;;;;;;;27.13;13.93;;;;;;;28.06;74.86;97382.44;4953548;28;20070;-65
2023/06/12 00:41:21;;;;;;;27.33;15.20;;;;;;;28.10;76.74;97379.88;4951697;28;20085;-65
2023/06/12 00:43:50;;;;;;;21.77;12.93;;;;;;;28.08;75.51;97380.19;4957219;28;20070;-65
2023/06/12 00:46:20;;;;;;;28.73;13.23;;;;;;;28.09;74.12;97387.22;4967462;28;20059;-67
2023/06/12 00:48:50;;;;;;;19.63;13.10;;;;;;;28.14;74.57;97402.56;4969533;28;20102;-65
2023/06/12 00:51:20;;;;;;;19.65;12.95;;;;;;;28.18;74.79;97403.50;4960607;28;20144;-65
2023/06/12 00:53:52;;;;;;;25.65;13.68;;;;;;;28.23;76.31;97405.19;4958155;28;20043;-65
2023/06/12 00:56:22;;;;;;;26.73;13.75;;;;;;;28.27;76.13;97406.09;4959089;28;20161;-66
2023/06/12 00:58:52;;;;;;;19.92;13.32;;;;;;;28.30;76.12;97403.50;4969326;28;20116;-66
2023/06/12 01:01:25;;;;;;;19.77;13.40;;;;;;;28.35;75.97;97402.47;4954472;28;20061;-66
2023/06/12 01:03:57;;;;;;;23.15;13.27;;;;;;;28.41;75.34;97410.06;4954452;28;20113;-65
2023/06/12 01:06:39;;;;;;;24.55;12.80;;;;;;;28.47;75.26;97411.44;4957622;28;20116;-65
2023/06/12 01:09:40;;;;;;;22.10;12.98;;;;;;;28.54;74.44;97411.69;4955871;28;20689;-63
2023/06/12 01:12:11;;;;;;;20.98;12.63;;;;;;;28.65;75.34;97422.13;4956512;28;20051;-64
2023/06/12 01:14:47;;;;;;;24.60;12.82;;;;;;;28.72;73.83;97427.84;4959480;28;20039;-64
2023/06/12 01:17:17;;;;;;;22.45;13.20;;;;;;;28.82;74.28;97433.59;4955750;28;20050;-64
2023/06/12 01:19:46;;;;;;;28.20;13.15;;;;;;;28.92;72.76;97433.16;4966894;28;20050;-65
2023/06/12 01:22:20;;;;;;;28.05;13.65;;;;;;;29.06;70.99;97423.81;4932971;28;20163;-66
2023/06/12 01:25:32;;;;;;;26.42;13.85;;;;;;;29.21;71.20;97429.34;4954135;28;20767;-66
2023/06/12 01:28:27;;;;;;;22.88;13.43;;;;;;;29.30;71.56;97426.50;4956730;28;20137;-64
2023/06/12 01:31:08;;;;;;;22.58;14.30;;;;;;;29.37;71.94;97421.25;4955651;28;20042;-65
2023/06/12 01:33:41;;;;;;;25.98;14.00;;;;;;;29.48;73.73;97424.28;4954477;28;20153;-66
2023/06/12 01:36:15;;;;;;;25.98;14.27;;;;;;;29.56;71.49;97426.09;4968654;28;20058;-66
2023/06/12 01:38:52;;;;;;;30.77;15.25;;;;;;;29.70;69.83;97430.00;4960478;28;20077;-65
2023/06/12 01:41:25;;;;;;;27.50;15.05;;;;;;;29.84;70.77;97424.94;4956343;28;20130;-66
2023/06/12 01:43:55;;;;;;;25.83;15.32;;;;;;;29.97;68.15;97427.63;4955164;28;20047;-65
2023/06/12 01:46:24;;;;;;;29.85;14.50;;;;;;;30.12;68.47;97419.47;4951101;28;20280;-65
2023/06/12 01:48:54;;;;;;;26.52;14.40;;;;;;;30.29;67.40;97424.59;4954990;28;20510;-66
2023/06/12 01:51:24;;;;;;;32.72;15.52;;;;;;;30.55;68.48;97426.00;4955743;28;20050;-66
2023/06/12 01:53:53;;;;;;;26.45;14.95;;;;;;;30.68;66.39;97425.56;4954250;28;20054;-66
2023/06/12 01:56:26;;;;;;;32.83;14.15;;;;;;;30.86;64.88;97423.25;4955634;28;20059;-66
2023/06/12 01:58:56;;;;;;;26.40;14.63;;;;;;;31.05;64.28;97430.75;4966593;28;20083;-65
2023/06/12 02:01:38;;;;;;;29.10;14.57;;;;;;;31.25;62.81;97426.88;4958287;28;20074;-66
2023/06/12 02:04:08;;;;;;;44.92;15.30;;;;;;;31.53;60.35;97434.88;4958523;28;20050;-66
2023/06/12 02:06:37;;;;;;;32.70;14.18;;;;;;;31.77;61.80;97425.63;4962976;28;20043;-66
2023/06/12 02:09:07;;;;;;;28.10;14.38;;;;;;;32.00;60.53;97434.66;4952248;28;20058;-63
2023/06/12 02:11:36;;;;;;;31.08;14.15;;;;;;;32.14;61.13;97436.91;4956700;28;20049;-65
2023/06/12 02:14:06;;;;;;;28.52;12.77;;;;;;;32.28;60.68;97439.91;4954680;28;20464;-66
2023/06/12 02:16:36;;;;;;;27.33;12.85;;;;;;;32.26;62.91;97445.75;4961944;28;20134;-66
2023/06/12 02:19:06;;;;;;;21.58;12.10;;;;;;;32.29;61.75;97453.25;4947578;28;20423;-65
2023/06/12 02:21:36;;;;;;;24.23;10.77;;;;;;;32.38;60.89;97459.28;4957594;28;20125;-66
2023/06/12 02:24:06;;;;;;;21.58;10.60;;;;;;;32.49;60.03;97460.25;4958629;28;20054;-65
2023/06/12 02:26:36;;;;;;;23.10;9.90;;;;;;;32.87;57.12;97464.03;4957024;28;20051;-65
2023/06/12 02:29:12;;;;;;;22.52;9.77;;;;;;;33.11;57.76;97473.78;4957936;28;20058;-65
2023/06/12 02:31:45;;;;;;;20.90;8.98;;;;;;;33.42;55.77;97470.72;4953092;28;20043;-65
2023/06/12 02:34:15;;;;;;;25.55;9.40;;;;;;;33.79;52.36;97470.84;4958903;28;20089;-66
2023/06/12 02:36:46;;;;;;;20.23;8.70;;;;;;;34.08;51.75;97480.19;4959122;28;20062;-65
2023/06/12 02:39:25;;;;;;;17.17;7.93;;;;;;;34.19;49.22;97481.13;4949941;28;20692;-65
2023/06/12 02:41:54;;;;;;;20.30;8.40;;;;;;;34.38;50.12;97477.38;4952843;28;20043;-65
2023/06/12 02:44:24;;;;;;;15.77;7.75;;;;;;;34.67;48.85;97488.28;4956674;28;20047;-65
2023/06/12 02:46:56;;;;;;;22.52;7.72;;;;;;;34.82;47.92;97482.91;4959899;28;20047;-66
2023/06/12 02:49:30;;;;;;;27.33;8.65;;;;;;;34.80;49.83;97488.78;4954540;28;20061;-66
2023/06/12 02:52:01;;;;;;;21.88;8.00;;;;;;;34.74;51.20;97490.31;4956014;28;20053;-66
2023/06/12 02:54:32;;;;;;;25.10;8.73;;;;;;;34.89;47.52;97499.47;4955145;28;20695;-67
2023/06/12 02:57:02;;;;;;;32.22;8.43;;;;;;;34.91;47.36;97494.38;4953824;28;20120;-66
2023/06/12 02:59:33;;;;;;;21.38;7.00;;;;;;;34.93;50.37;97509.34;4943381;28;20062;-66
2023/06/12 03:02:07;;;;;;;19.50;6.95;;;;;;;35.06;48.24;97507.84;4945500;28;20074;-66
2023/06/12 03:04:45;;;;;;;26.55;8.82;;;;;;;35.22;48.67;97509.56;4941138;28;20051;-65
2023/06/12 03:07:16;;;;;;;21.92;8.10;;;;;;;35.14;48.31;97522.47;4946143;28;20256;-66
2023/06/12 03:09:46;;;;;;;22.90;9.65;;;;;;;35.08;48.08;97522.03;4947011;28;20075;-66
2023/06/12 03:12:16;;;;;;;28.92;12.00;;;;;;;34.86;46.44;97519.50;4955119;28;20051;-66
2023/06/12 03:14:46;;;;;;;34.90;13.38;;;;;;;35.17;50.03;97527.25;4941876;29;20043;-66
2023/06/12 03:17:15;;;;;;;36.20;14.70;;;;;;;34.93;47.17;97519.53;4944104;28;20605;-65
2023/06/12 03:19:45;;;;;;;32.25;13.95;;;;;;;35.12;47.59;97527.56;4949877;28;20054;-64
2023/06/12 03:22:15;;;;;;;32.90;13.48;;;;;;;35.20;46.57;97540.25;4946698;28;20502;-67
2023/06/12 03:24:45;;;;;;;29.00;13.20;;;;;;;35.24;46.86;97535.53;4943680;28;20146;-65
2023/06/12 03:27:14;;;;;;;26.75;12.30;;;;;;;35.36;47.03;97537.22;4943786;28;20502;-64
2023/06/12 03:29:45;;;;;;;28.08;12.32;;;;;;;35.26;47.06;97544.22;4946259;28;20062;-65
2023/06/12 03:32:15;;;;;;;33.30;11.82;;;;;;;35.15;46.02;97540.56;4942436;28;20055;-65
2023/06/12 03:34:54;;;;;;;26.92;9.60;;;;;;;35.25;46.08;97536.34;4942054;28;20508;-67
2023/06/12 03:37:27;;;;;;;24.63;10.38;;;;;;;35.22;47.87;97537.91;4958459;28;20089;-65
2023/06/12 03:40:03;;;;;;;21.20;9.18;;;;;;;35.20;47.15;97533.94;4933889;28;20078;-66
2023/06/12 03:42:36;;;;;;;36.97;9.77;;;;;;;35.31;46.16;97526.56;4949866;28;20047;-66
2023/06/12 03:45:07;;;;;;;19.95;8.88;;;;;;;35.37;46.53;97533.25;4942686;28;20413;-65
2023/06/12 03:47:37;;;;;;;36.90;9.48;;;;;;;35.28;48.03;97539.13;4954967;28;20058;-65
2023/06/12 03:50:10;;;;;;;24.30;8.90;;;;;;;35.33;46.76;97536.00;4954425;28;20417;-66
2023/06/12 03:52:40;;;;;;;30.55;7.55;;;;;;;35.58;46.10;97538.94;4944722;28;20043;-66
2023/06/12 03:55:09;;;;;;;14.35;5.38;;;;;;;35.56;43.75;97542.06;4945691;28;20047;-66
2023/06/12 03:57:39;;;;;;;16.17;5.28;;;;;;;35.53;43.10;97540.09;4958844;28;20210;-67
2023/06/12 04:00:11;;;;;;;24.05;5.50;;;;;;;35.53;42.78;97542.03;4950443;28;20054;-65
2023/06/12 04:02:44;;;;;;;27.23;5.80;;;;;;;35.58;43.37;97538.94;4964915;28;20055;-67
2023/06/12 04:05:20;;;;;;;28.95;7.10;;;;;;;36.02;42.77;97536.81;4953528;28;20880;-66
2023/06/12 04:07:50;;;;;;;16.98;6.53;;;;;;;36.40;43.11;97540.88;4956978;28;20074;-66
2023/06/12 04:10:20;;;;;;;18.10;7.18;;;;;;;36.62;42.96;97541.75;4952523;28;20153;-66
2023/06/12 04:12:50;;;;;;;22.30;6.80;;;;;;;36.61;44.02;97551.19;4957663;28;20063;-66
2023/06/12 04:15:21;;;;;;;24.80;6.20;;;;;;;36.85;42.68;97549.66;4945519;28;20691;-68
2023/06/12 04:17:52;;;;;;;19.88;5.35;;;;;;;36.89;42.70;97554.00;4938042;28;20133;-68
2023/06/12 04:20:23;;;;;;;25.10;6.13;;;;;;;36.81;42.42;97548.88;4935018;28;20070;-67
2023/06/12 04:22:56;;;;;;;32.78;6.28;;;;;;;36.70;42.36;97554.38;4956847;28;20142;-66
2023/06/12 04:25:26;;;;;;;22.98;6.28;;;;;;;36.85;41.79;97555.19;4969327;28;20533;-67
2023/06/12 04:27:56;;;;;;;41.72;8.05;;;;;;;36.64;42.21;97555.16;4945214;28;20487;-63
2023/06/12 04:30:27;;;;;;;23.73;6.60;;;;;;;36.66;41.75;97552.78;4958122;28;20094;-64
2023/06/12 04:32:57;;;;;;;24.73;6.72;;;;;;;36.61;42.94;97556.72;4962357;28;20114;-65
2023/06/12 04:35:26;;;;;;;29.05;7.43;;;;;;;36.82;44.46;97558.72;4965911;28;20051;-64
2023/06/12 04:37:56;;;;;;;22.58;6.47;;;;;;;36.60;43.12;97557.13;4952591;28;20047;-64
2023/06/12 04:40:26;;;;;;;30.70;6.38;;;;;;;36.48;42.40;97553.50;4938073;28;20046;-61
2023/06/12 04:42:59;;;;;;;23.45;5.60;;;;;;;36.18;42.40;97553.03;4951710;28;20074;-63
2023/06/12 04:45:32;;;;;;;21.67;7.38;;;;;;;36.10;40.53;97564.41;4948651;28;20066;-62
2023/06/12 04:48:06;;;;;;;15.85;5.10;;;;;;;36.05;40.19;97562.81;4945377;28;20165;-63
2023/06/12 04:50:36;;;;;;;15.63;5.65;;;;;;;36.20;42.82;97561.72;4951601;28;20053;-62
2023/06/12 04:53:06;;;;;;;30.15;5.95;;;;;;;36.10;42.71;97562.44;4932079;28;20050;-63
2023/06/12 04:55:35;;;;;;;17.13;5.80;;;;;;;36.25;44.25;97566.84;4966124;28;20050;-62
2023/06/12 04:58:05;;;;;;;16.95;5.68;;;;;;;36.13;42.12;97566.41;4953431;28;20138;-64
2023/06/12 05:00:34;;;;;;;28.38;5.50;;;;;;;35.93;40.90;97560.41;4958815;28;20473;-62
2023/06/12 05:03:04;;;;;;;18.02;5.10;;;;;;;36.00;43.73;97566.72;4967079;28;20046;-63
2023/06/12 05:05:34;;;;;;;24.80;5.13;;;;;;;36.05;43.52;97565.56;4954078;28;20042;-65
2023/06/12 05:08:04;;;;;;;21.58;5.82;;;;;;;35.84;45.92;97559.94;4956645;28;20678;-64
2023/06/12 05:10:33;;;;;;;25.90;5.45;;;;;;;35.91;42.47;97552.50;4958721;28;20139;-64
2023/06/12 05:13:03;;;;;;;23.42;6.00;;;;;;;36.07;41.95;97552.16;4939068;28;20495;-64
2023/06/12 05:15:32;;;;;;;25.92;5.90;;;;;;;36.32;42.87;97558.59;4957555;28;20371;-64
2023/06/12 05:18:02;;;;;;;24.17;5.20;;;;;;;36.26;43.47;97551.06;4953039;28;20047;-64
2023/06/12 05:20:31;;;;;;;16.83;4.97;;;;;;;36.17;42.32;97554.19;4958109;28;20101;-63
2023/06/12 05:23:02;;;;;;;19.80;5.72;;;;;;;36.14;43.03;97548.69;4954553;28;20058;-64
2023/06/12 05:25:32;;;;;;;14.77;5.00;;;;;;;36.24;44.96;97554.25;4951854;28;20133;-65
2023/06/12 05:28:03;;;;;;;17.70;5.25;;;;;;;36.26;44.00;97557.38;4940865;28;20050;-65
2023/06/12 05:30:35;;;;;;;22.57;5.10;;;;;;;36.07;44.02;97549.41;4955262;28;20051;-64
2023/06/12 05:33:07;;;;;;;20.85;5.20;;;;;;;36.33;45.43;97553.88;4962395;28;20042;-65
2023/06/12 05:35:37;;;;;;;21.33;5.10;;;;;;;36.21;40.85;97548.69;4958302;28;20133;-62
2023/06/12 05:38:07;;;;;;;19.42;5.15;;;;;;;36.17;44.31;97548.69;4957934;28;20066;-63
2023/06/12 05:40:36;;;;;;;24.67;5.32;;;;;;;36.36;42.77;97550.31;4953026;28;20164;-63
2023/06/12 05:43:06;;;;;;;24.85;4.72;;;;;;;36.42;41.50;97544.06;4939422;28;20047;-62
2023/06/12 05:45:36;;;;;;;17.17;4.80;;;;;;;36.51;40.72;97548.41;4950534;28;20050;-65
2023/06/12 05:48:07;;;;;;;21.60;5.43;;;;;;;36.47;42.00;97540.09;4953310;28;20077;-60
2023/06/12 05:50:37;;;;;;;16.50;4.72;;;;;;;36.80;41.13;97550.84;4951581;28;20075;-62
2023/06/12 05:53:08;;;;;;;18.25;6.10;;;;;;;36.84;40.44;97535.06;4949482;28;20748;-63
2023/06/12 05:55:38;;;;;;;21.38;5.07;;;;;;;36.99;39.79;97540.59;4932355;28;20157;-61
2023/06/12 05:58:08;;;;;;;24.88;4.68;;;;;;;37.08;42.47;97529.97;4965839;28;20071;-60
2023/06/12 06:00:38;;;;;;;14.60;4.50;;;;;;;36.89;41.98;97525.59;4959292;28;20151;-60
2023/06/12 06:03:19;;;;;;;22.63;5.78;;;;;;;36.72;42.32;97529.94;4954877;28;20051;-63
2023/06/12 06:05:49;;;;;;;19.83;5.65;;;;;;;36.57;42.64;97533.03;4955742;28;20054;-61
2023/06/12 06:08:20;;;;;;;17.65;5.25;;;;;;;36.48;43.54;97530.66;4956397;28;20055;-61
2023/06/12 06:10:49;;;;;;;19.25;4.75;;;;;;;36.36;40.32;97531.81;4953388;28;20061;-61
2023/06/12 06:13:20;;;;;;;24.02;5.05;;;;;;;36.29;42.72;97528.25;4947510;28;20054;-63
2023/06/12 06:15:50;;;;;;;25.08;6.38;;;;;;;36.26;42.76;97523.50;4937753;28;20057;-64
2023/06/12 06:18:19;;;;;;;16.38;6.63;;;;;;;36.14;44.58;97524.66;4949979;28;20387;-64
2023/06/12 06:20:49;;;;;;;25.83;6.13;;;;;;;36.06;43.69;97523.03;4959173;28;20042;-62
2023/06/12 06:23:21;;;;;;;22.70;7.25;;;;;;;35.80;46.40;97518.59;4953827;28;20046;-61
2023/06/12 06:25:55;;;;;;;18.08;6.72;;;;;;;35.76;47.00;97517.78;4943511;28;20399;-61
2023/06/12 06:28:27;;;;;;;22.45;6.90;;;;;;;35.93;43.80;97510.78;4949823;28;20039;-62
2023/06/12 06:31:08;;;;;;;24.98;7.68;;;;;;;35.81;47.34;97508.34;4961597;28;20169;-62
2023/06/12 06:33:38;;;;;;;15.60;6.32;;;;;;;35.86;46.70;97513.50;4947768;28;20047;-61
2023/06/12 06:36:07;;;;;;;21.80;6.63;;;;;;;35.88;46.40;97514.69;4956932;28;20065;-61
2023/06/12 06:38:37;;;;;;;15.20;6.15;;;;;;;35.89;47.04;97498.94;4933915;28;20061;-62
2023/06/12 06:41:07;;;;;;;24.88;6.53;;;;;;;36.06;46.86;97503.72;4949182;28;20054;-60
2023/06/12 06:43:36;;;;;;;19.27;6.18;;;;;;;36.19;46.04;97504.19;4957390;28;20398;-60
2023/06/12 06:46:08;;;;;;;28.25;6.20;;;;;;;36.21;44.87;97496.31;4948627;28;20125;-61
2023/06/12 06:48:37;;;;;;;29.63;7.00;;;;;;;36.29;43.19;97503.44;4949756;28;20150;-61
2023/06/12 06:51:08;;;;;;;12.20;5.40;;;;;;;36.42;45.31;97510.94;4950634;28;20859;-61
2023/06/12 06:53:38;;;;;;;15.77;5.50;;;;;;;36.60;39.56;97507.47;4953060;28;20074;-60
2023/06/12 06:56:07;;;;;;;20.95;4.55;;;;;;;36.69;34.60;97494.06;4956760;28;20058;-61
2023/06/12 06:58:37;;;;;;;19.60;4.90;;;;;;;36.98;38.50;97492.06;4967543;28;20375;-62
2023/06/12 07:01:06;;;;;;;18.98;5.40;;;;;;;36.88;36.69;97488.91;4958087;28;20108;-61
2023/06/12 07:03:36;;;;;;;21.23;5.80;;;;;;;37.05;38.76;97492.84;4952989;28;20050;-60
2023/06/12 07:06:06;;;;;;;19.65;5.78;;;;;;;37.32;38.08;97490.47;4957746;28;20047;-62
2023/06/12 07:08:36;;;;;;;25.17;5.95;;;;;;;37.35;41.99;97484.94;4958082;28;20050;-61
2023/06/12 07:11:06;;;;;;;22.75;5.53;;;;;;;37.29;38.40;97481.00;4957658;28;20053;-60
2023/06/12 07:13:37;;;;;;;26.10;6.38;;;;;;;37.20;38.51;97485.38;4938782;29;20047;-61
2023/06/12 07:16:07;;;;;;;24.13;6.75;;;;;;;37.26;40.84;97481.81;4954744;28;20042;-60
2023/06/12 07:18:36;;;;;;;25.27;7.00;;;;;;;37.35;41.09;97479.41;4967348;28;20788;-61
2023/06/12 07:21:05;;;;;;;20.17;6.60;;;;;;;37.43;41.41;97482.94;4956215;28;20816;-60
2023/06/12 07:23:38;;;;;;;22.90;6.82;;;;;;;37.46;42.37;97473.06;4939407;28;20378;-60
2023/06/12 07:26:13;;;;;;;24.48;6.50;;;;;;;37.35;40.53;97467.59;4954577;28;20174;-61
2023/06/12 07:28:45;;;;;;;;;;;;;;;37.45;42.68;97461.22;4954663;28;20054;-61
2023/06/12 07:31:15;;;;;;;22.52;5.90;;;;;;;37.41;40.56;97457.69;4961232;28;20322;-61
2023/06/12 07:33:45;;;;;;;18.20;6.15;;;;;;;37.34;41.57;97458.50;4958819;28;20046;-61
2023/06/12 07:36:17;;;;;;;19.80;6.80;;;;;;;37.53;40.66;97451.75;4956925;28;20051;-60
2023/06/12 07:38:47;;;;;;;41.05;7.18;;;;;;;37.52;37.92;97454.94;4954536;28;20057;-63
2023/06/12 07:41:17;;;;;;;27.27;6.97;;;;;;;37.54;40.31;97447.00;4966259;28;20082;-63
2023/06/12 07:43:47;;;;;;;34.45;7.25;;;;;;;37.64;38.33;97449.75;4956939;28;20113;-63
2023/06/12 07:46:16;;;;;;;29.23;6.00;;;;;;;37.59;38.07;97443.84;4956586;28;20051;-61
2023/06/12 07:48:46;;;;;;;29.10;6.45;;;;;;;37.47;39.05;97447.03;4957802;28;20054;-62
2023/06/12 07:51:16;;;;;;;32.20;7.78;;;;;;;37.55;38.93;97441.09;4955372;28;20051;-60
2023/06/12 07:53:46;;;;;;;23.63;6.10;;;;;;;37.51;40.41;97429.25;4964913;28;20570;-62
2023/06/12 07:56:17;;;;;;;28.02;6.53;;;;;;;37.53;39.03;97434.41;4944885;28;20101;-63
2023/06/12 07:58:48;;;;;;;27.90;6.15;;;;;;;37.68;39.44;97431.16;4962070;28;20129;-62
2023/06/12 08:01:18;;;;;;;31.98;6.43;;;;;;;37.70;38.05;97434.31;4961067;28;20054;-64
2023/06/12 08:03:49;;;;;;;19.80;5.85;;;;;;;37.74;37.94;97432.34;4959587;28;20145;-61
2023/06/12 08:06:20;;;;;;;22.90;5.88;;;;;;;37.67;37.87;97428.78;4957123;28;20042;-61
2023/06/12 08:08:50;;;;;;;25.20;6.88;;;;;;;37.58;37.49;97428.44;4947609;28;20805;-62
2023/06/12 08:11:19;;;;;;;34.67;6.72;;;;;;;37.58;38.32;97422.91;4962136;28;20042;-62
2023/06/12 08:13:51;;;;;;;30.73;6.80;;;;;;;37.32;40.66;97416.66;4958688;28;20475;-61
2023/06/12 08:16:25;;;;;;;34.63;7.68;;;;;;;37.41;39.04;97416.25;4955836;28;20062;-61
2023/06/12 08:18:56;;;;;;;;;;;;;;;37.49;39.39;97411.50;4964522;28;20408;-62
2023/06/12 08:21:30;;;;;;;25.98;6.68;;;;;;;37.19;37.73;97411.97;4960529;28;19946;-61
2023/06/12 08:24:01;;;;;;;28.77;7.32;;;;;;;37.09;40.47;97405.28;4964815;28;20122;-61
2023/06/12 08:26:31;;;;;;;38.78;6.95;;;;;;;37.18;38.90;97393.81;4958530;28;20439;-61
2023/06/12 08:29:00;;;;;;;25.33;6.60;;;;;;;37.22;40.05;97389.09;4958795;28;20141;-61
2023/06/12 08:31:36;;;;;;;25.52;6.25;;;;;;;37.19;41.42;97387.91;4957936;28;20043;-60
2023/06/12 08:34:06;;;;;;;25.17;7.40;;;;;;;37.04;40.24;97389.13;4968334;28;20061;-62
2023/06/12 08:36:37;;;;;;;29.02;7.18;;;;;;;37.24;41.23;97389.47;4960582;28;20133;-60
2023/06/12 08:39:08;;;;;;;37.15;7.10;;;;;;;37.23;39.96;97388.69;4959228;28;20054;-61
2023/06/12 08:41:54;;;;;;;24.35;5.90;;;;;;;37.28;40.53;97388.28;4949429;28;20047;-60
2023/06/12 08:44:24;;;;;;;39.60;7.47;;;;;;;37.16;38.18;97382.41;4975109;28;20104;-60
2023/06/12 08:46:56;;;;;;;39.53;6.75;;;;;;;37.12;39.61;97371.38;4957748;28;20062;-61
2023/06/12 08:49:27;;;;;;;;;;;;;;;37.08;39.50;97376.13;4970413;28;20046;-62
2023/06/12 08:51:56;;;;;;;32.25;7.03;;;;;;;37.18;39.42;97349.63;4966112;28;19922;-60
2023/06/12 08:54:26;;;;;;;31.92;6.75;;;;;;;37.17;39.77;97368.22;4967694;28;20047;-61
2023/06/12 08:56:57;;;;;;;34.60;6.88;;;;;;;37.24;38.83;97370.94;4969383;28;20066;-60
2023/06/12 08:59:28;;;;;;;37.90;6.18;;;;;;;37.21;37.08;97371.75;4966594;28;20050;-60
2023/06/12 09:01:58;;;;;;;35.95;6.95;;;;;;;37.29;38.30;97370.53;4969336;28;20466;-60
2023/06/12 09:04:59;;;;;;;34.67;6.57;;;;;;;37.37;38.75;97360.22;4980131;28;20105;-61
2023/06/12 09:07:33;;;;;;;36.22;6.68;;;;;;;37.44;38.05;97368.50;4959599;28;20117;-61
2023/06/12 09:10:04;;;;;;;45.75;6.72;;;;;;;37.51;38.75;97370.44;4966820;28;20057;-63
2023/06/12 09:12:44;;;;;;;31.25;6.50;;;;;;;37.53;39.66;97362.56;4965687;28;20454;-61
2023/06/12 09:15:18;;;;;;;22.77;6.70;;;;;;;37.51;38.92;97353.84;4963989;28;20061;-61
2023/06/12 09:17:52;;;;;;;39.20;6.35;;;;;;;37.41;40.45;97361.00;4961609;28;20062;-63
2023/06/12 09:20:32;;;;;;;35.38;6.72;;;;;;;37.38;39.01;97361.81;4960550;28;20046;-62
2023/06/12 09:23:05;;;;;;;33.55;7.13;;;;;;;37.26;38.80;97357.53;4968835;28;20165;-61
2023/06/12 09:25:35;;;;;;;30.85;6.63;;;;;;;37.34;38.96;97359.06;4960329;28;20058;-60
2023/06/12 09:28:05;;;;;;;35.45;6.95;;;;;;;37.30;39.76;97352.78;4968930;28;20161;-62
2023/06/12 09:30:44;;;;;;;30.67;6.57;;;;;;;37.39;39.67;97354.31;4969108;28;20050;-60
2023/06/12 09:33:13;;;;;;;31.95;6.50;;;;;;;37.43;38.17;97352.31;4968847;28;20097;-60
2023/06/12 09:35:53;;;;;;;30.08;6.65;;;;;;;37.33;38.62;97348.41;4968875;28;20055;-59
2023/06/12 09:38:34;;;;;;;34.85;6.90;;;;;;;37.32;39.45;97339.31;4975460;28;20168;-60
2023/06/12 09:41:05;;;;;;;42.00;7.60;;;;;;;37.38;39.19;97344.44;4951354;28;20918;-60
2023/06/12 09:43:36;;;;;;;35.75;6.50;;;;;;;37.32;39.29;97338.53;4976384;28;20526;-60
2023/06/12 09:46:08;;;;;;;28.33;5.88;;;;;;;37.20;40.01;97325.19;4957240;28;20071;-60
2023/06/12 09:48:41;;;;;;;36.55;6.43;;;;;;;37.19;39.15;97329.91;4974904;28;20554;-61
2023/06/12 09:51:27;;;;;;;27.23;6.30;;;;;;;37.22;40.05;97331.09;4968470;28;20050;-60
2023/06/12 09:54:00;;;;;;;41.95;7.13;;;;;;;37.28;39.00;97324.75;4954771;28;20043;-60
2023/06/12 09:56:29;;;;;;;26.47;6.80;;;;;;;37.30;40.01;97325.16;4967966;28;20058;-60
2023/06/12 09:59:00;;;;;;;37.15;7.45;;;;;;;37.28;41.36;97319.22;4968303;28;20486;-61
2023/06/12 10:01:29;;;;;;;24.70;6.93;;;;;;;37.28;39.53;97312.91;4967984;28;20047;-60
2023/06/12 10:04:01;;;;;;;34.20;7.43;;;;;;;37.28;40.86;97316.47;4964894;28;20046;-60
2023/06/12 10:06:33;;;;;;;50.80;8.15;;;;;;;37.23;40.65;97310.56;4965997;28;20085;-60
2023/06/12 10:09:03;;;;;;;23.65;5.82;;;;;;;36.91;43.10;97311.44;4962630;28;20055;-60
2023/06/12 10:11:37;;;;;;;29.33;5.82;;;;;;;36.31;45.61;97313.50;4967038;28;20074;-60
2023/06/12 10:14:07;;;;;;;19.13;5.57;;;;;;;35.84;46.82;97315.47;4966949;28;20061;-61
2023/06/12 10:16:38;;;;;;;25.13;5.75;;;;;;;35.40;48.20;97307.47;4965520;28;20054;-62
2023/06/12 10:19:08;;;;;;;21.92;6.03;;;;;;;35.12;49.90;97305.38;4966436;28;20058;-60
2023/06/12 10:21:40;;;;;;;32.05;6.30;;;;;;;34.91;50.22;97302.53;4958944;28;20047;-61
2023/06/12 10:24:10;;;;;;;23.25;5.95;;;;;;;34.93;49.07;97291.13;4966947;28;20093;-59
2023/06/12 10:26:40;;;;;;;27.67;5.97;;;;;;;34.70;51.13;97291.41;4953300;28;20059;-60
2023/06/12 10:29:33;;;;;;;22.60;5.82;;;;;;;34.61;51.17;97294.47;4966340;28;20051;-60
2023/06/12 10:32:07;;;;;;;27.65;6.78;;;;;;;34.66;50.40;97302.41;4961137;28;20047;-61
2023/06/12 10:34:42;;;;;;;30.73;7.28;;;;;;;34.83;48.60;97289.91;4967553;28;20046;-61
2023/06/12 10:37:32;;;;;;;27.55;6.13;;;;;;;35.05;47.02;97296.31;4963875;28;20050;-61
2023/06/12 10:40:12;;;;;;;28.98;6.75;;;;;;;34.89;49.69;97282.06;4972379;28;20458;-61
2023/06/12 10:42:54;;;;;;;25.17;5.85;;;;;;;34.69;49.38;97279.66;4957625;28;20074;-61
2023/06/12 10:45:26;;;;;;;23.17;5.75;;;;;;;34.63;50.52;97283.09;4954120;28;20498;-62
2023/06/12 10:48:05;;;;;;;21.92;6.50;;;;;;;34.59;51.61;97279.53;4967097;28;20379;-61
2023/06/12 10:50:43;;;;;;;28.50;6.53;;;;;;;34.53;51.37;97281.84;4957940;28;20051;-61
2023/06/12 10:53:15;;;;;;;27.95;5.60;;;;;;;34.48;51.74;97275.94;4975126;28;20585;-62
2023/06/12 10:55:45;;;;;;;27.73;6.22;;;;;;;34.39;52.97;97272.75;4977996;28;20050;-61
2023/06/12 10:58:21;;;;;;;26.30;5.93;;;;;;;34.30;52.40;97275.06;4958664;28;20039;-62
2023/06/12 11:00:52;;;;;;;19.27;5.40;;;;;;;34.26;54.64;97261.25;4974885;28;20047;-60
2023/06/12 11:03:25;;;;;;;25.23;5.78;;;;;;;34.23;54.61;97267.53;4974457;28;20125;-61
2023/06/12 11:06:00;;;;;;;26.35;5.78;;;;;;;34.30;52.80;97266.81;4975538;28;20073;-60
2023/06/12 11:08:34;;;;;;;24.08;6.65;;;;;;;34.30;53.23;97266.81;4974922;28;20045;-61
2023/06/12 11:11:07;;;;;;;29.70;6.90;;;;;;;34.56;50.64;97261.06;4965814;28;20101;-63
2023/06/12 11:13:45;;;;;;;33.22;6.68;;;;;;;34.59;50.78;97268.53;4957970;28;20088;-60
2023/06/12 11:16:21;;;;;;;24.35;5.85;;;;;;;34.58;51.52;97264.22;4958849;28;20046;-60
2023/06/12 11:19:10;;;;;;;23.85;7.15;;;;;;;34.46;54.12;97265.31;4965465;28;20050;-61
2023/06/12 11:21:41;;;;;;;26.92;6.32;;;;;;;34.40;53.66;97255.06;4962720;28;20142;-60
2023/06/12 11:24:11;;;;;;;28.55;5.82;;;;;;;34.34;53.78;97251.13;4966633;28;20117;-61
2023/06/12 11:26:42;;;;;;;30.15;7.28;;;;;;;34.41;51.75;97256.66;4966437;28;20054;-62
2023/06/12 11:29:15;;;;;;;27.25;6.35;;;;;;;34.23;53.95;97251.03;4943961;28;20051;-61
2023/06/12 11:32:01;;;;;;;27.85;6.63;;;;;;;34.23;54.21;97251.03;4966898;28;20050;-63
2023/06/12 11:34:37;;;;;;;17.67;5.57;;;;;;;34.19;54.74;97242.78;4957747;28;20042;-61
2023/06/12 11:37:20;;;;;;;36.95;6.30;;;;;;;34.35;53.52;97247.16;4966113;28;20046;-62
2023/06/12 11:40:00;;;;;;;28.95;6.43;;;;;;;34.18;55.61;97246.69;4966623;28;20138;-61
2023/06/12 11:42:30;;;;;;;27.42;6.05;;;;;;;34.20;53.43;97243.56;4964292;28;20558;-61
2023/06/12 11:45:00;;;;;;;23.70;7.00;;;;;;;34.04;54.85;97241.06;4967077;28;20504;-61
2023/06/12 11:47:30;;;;;;;37.58;7.63;;;;;;;34.01;55.16;97249.28;4971823;28;20150;-62